Time;durP1;ratioP1;P1;durP2;ratioP2;P2;SDS_P1;SDS_P2;PMS_P1;PMS_P2;Temp;Humidity;BMP_temperature;BMP_pressure;BME280_temperature;BME280_humidity;BME280_pressure;Samples;Min_cycle;Max_cycle;Signal;HPM_P1;HPM_P2
2021/12/28 00:01:36;;;;;;;156.63;29.52;;;8.40;99.90;;;;;;4160622;28;20391;-53
2021/12/28 00:03:40;;;;;;;264.58;34.38;;;8.40;99.90;;;;;;4163353;28;20041;-54
2021/12/28 00:05:42;;;;;;;70.78;26.50;;;8.40;99.90;;;;;;4164303;28;20041;-53
2021/12/28 00:07:45;;;;;;;390.00;39.97;;;8.40;99.90;;;;;;4162919;28;20096;-53
2021/12/28 00:09:48;;;;;;;302.30;33.40;;;8.40;99.90;;;;;;4163943;28;20096;-52
2021/12/28 00:11:50;;;;;;;74.97;21.77;;;8.40;99.90;;;;;;4162824;28;20072;-52
2021/12/28 00:14:00;;;;;;;;;;;8.30;99.90;;;;;;4163742;28;20033;-53
2021/12/28 00:18:08;;;;;;;83.13;24.20;;;8.40;99.90;;;;;;4161703;28;20375;-54
2021/12/28 00:20:10;;;;;;;193.15;26.27;;;8.40;99.90;;;;;;4162637;28;20099;-52
2021/12/28 00:22:12;;;;;;;135.43;25.00;;;8.40;99.90;;;;;;4162234;28;20136;-53
2021/12/28 00:24:15;;;;;;;231.35;26.90;;;8.30;99.90;;;;;;4158923;28;20069;-52
2021/12/28 00:26:20;;;;;;;173.85;23.90;;;8.30;99.90;;;;;;4168247;28;20509;-53
2021/12/28 00:28:22;;;;;;;246.85;30.55;;;8.30;99.90;;;;;;4151904;28;20061;-53
2021/12/28 00:30:24;;;;;;;236.73;32.60;;;8.20;99.90;;;;;;4164535;28;20080;-52
2021/12/28 00:32:27;;;;;;;225.43;29.58;;;8.20;99.90;;;;;;4161267;28;20477;-53
2021/12/28 00:34:31;;;;;;;196.73;30.67;;;8.20;99.90;;;;;;4164421;28;20521;-53
2021/12/28 00:36:33;;;;;;;81.55;23.08;;;8.20;99.90;;;;;;4161689;28;20038;-53
2021/12/28 00:38:35;;;;;;;121.68;24.95;;;8.20;99.90;;;;;;4164760;28;20560;-53
2021/12/28 00:40:38;;;;;;;26.17;20.88;;;8.20;99.90;;;;;;4161720;28;20056;-53
2021/12/28 00:42:40;;;;;;;;;;;8.20;99.90;;;;;;4161851;28;20044;-53
2021/12/28 00:44:42;;;;;;;164.70;23.50;;;8.30;99.90;;;;;;4162150;28;19921;-52
2021/12/28 00:46:44;;;;;;;109.50;21.05;;;8.20;99.90;;;;;;4163010;28;20046;-52
2021/12/28 00:48:46;;;;;;;74.50;20.80;;;8.20;99.90;;;;;;4161426;28;20042;-53
2021/12/28 00:50:49;;;;;;;30.55;16.83;;;8.30;99.90;;;;;;4158799;28;20038;-51
2021/12/28 00:52:51;;;;;;;19.48;16.83;;;8.20;99.90;;;;;;4162829;28;20064;-54
2021/12/28 00:54:53;;;;;;;16.42;14.80;;;8.20;99.90;;;;;;4156480;28;20038;-52
2021/12/28 00:56:55;;;;;;;16.23;14.75;;;8.30;99.90;;;;;;4160769;28;20116;-53
2021/12/28 00:58:57;;;;;;;15.13;13.75;;;8.30;99.90;;;;;;4164219;28;20045;-51
2021/12/28 01:00:59;;;;;;;17.80;15.65;;;8.30;99.90;;;;;;4162706;28;20056;-53
2021/12/28 01:03:03;;;;;;;23.27;17.08;;;8.30;99.90;;;;;;4161798;28;20033;-53
2021/12/28 01:05:07;;;;;;;46.13;23.25;;;8.30;99.90;;;;;;4161442;28;20037;-53
2021/12/28 01:07:09;;;;;;;41.55;21.85;;;8.30;99.90;;;;;;4163477;28;20199;-53
2021/12/28 01:09:11;;;;;;;152.77;24.90;;;8.20;99.90;;;;;;4159174;28;20178;-52
2021/12/28 01:11:14;;;;;;;111.65;22.73;;;8.30;99.90;;;;;;4171038;28;20501;-52
2021/12/28 01:13:17;;;;;;;191.00;26.30;;;8.30;99.90;;;;;;4161205;28;20033;-52
2021/12/28 01:15:19;;;;;;;;;;;8.30;99.90;;;;;;4162333;28;20037;-53
2021/12/28 01:17:22;;;;;;;286.55;25.17;;;8.30;99.90;;;;;;4161072;28;19921;-52
2021/12/28 01:19:24;;;;;;;307.83;25.88;;;8.20;99.90;;;;;;4162080;28;20041;-51
2021/12/28 01:21:26;;;;;;;215.07;22.88;;;8.20;99.90;;;;;;4162386;28;20048;-53
2021/12/28 01:23:28;;;;;;;128.45;20.08;;;8.20;99.90;;;;;;4162206;28;20120;-51
2021/12/28 01:25:30;;;;;;;237.60;20.80;;;8.20;99.90;;;;;;4159607;28;20077;-52
2021/12/28 01:27:32;;;;;;;84.68;13.00;;;8.20;99.90;;;;;;4164193;28;20051;-53
2021/12/28 01:29:34;;;;;;;;;;;8.20;99.90;;;;;;4161556;28;20037;-53
2021/12/28 01:31:37;;;;;;;153.73;14.75;;;8.20;99.90;;;;;;4162260;28;19983;-53
2021/12/28 01:33:39;;;;;;;146.88;14.90;;;8.20;99.90;;;;;;4159739;28;20041;-53
2021/12/28 01:35:42;;;;;;;192.48;18.00;;;8.20;99.90;;;;;;4149197;28;20073;-52
2021/12/28 01:37:45;;;;;;;126.63;15.00;;;8.20;99.90;;;;;;4158872;28;20029;-52
2021/12/28 01:39:47;;;;;;;134.93;15.30;;;8.20;99.90;;;;;;4160488;28;20045;-53
2021/12/28 01:41:49;;;;;;;173.80;17.25;;;8.20;99.90;;;;;;4160799;28;20040;-52
2021/12/28 01:43:56;;;;;;;152.35;17.17;;;8.10;99.90;;;;;;4163043;28;20565;-53
2021/12/28 01:46:00;;;;;;;194.20;19.27;;;8.20;99.90;;;;;;4160605;28;20041;-52
2021/12/28 01:48:05;;;;;;;197.68;23.88;;;8.10;99.90;;;;;;4162516;28;20041;-52
2021/12/28 01:50:07;;;;;;;121.45;25.23;;;8.10;99.90;;;;;;4160712;28;20123;-52
2021/12/28 01:52:09;;;;;;;364.58;35.17;;;8.20;99.90;;;;;;4147026;28;20080;-53
2021/12/28 01:54:11;;;;;;;432.77;34.35;;;8.20;99.90;;;;;;4160936;28;20038;-52
2021/12/28 01:56:17;;;;;;;75.05;20.52;;;8.10;99.90;;;;;;4162844;28;20461;-51
2021/12/28 01:58:20;;;;;;;182.23;25.80;;;8.10;99.90;;;;;;4159154;28;20052;-52
2021/12/28 02:00:24;;;;;;;203.63;26.48;;;8.20;99.90;;;;;;4162598;28;20037;-53
2021/12/28 02:02:26;;;;;;;303.27;25.90;;;8.20;99.90;;;;;;4160322;28;20076;-53
2021/12/28 02:04:29;;;;;;;214.30;22.48;;;8.10;99.90;;;;;;4153070;28;20044;-53
2021/12/28 02:06:31;;;;;;;155.07;21.15;;;8.10;99.90;;;;;;4159933;28;20494;-53
2021/12/28 02:08:33;;;;;;;100.90;18.75;;;8.10;99.90;;;;;;4162422;28;20111;-50
2021/12/28 02:10:37;;;;;;;121.30;17.92;;;8.10;99.90;;;;;;4159762;28;20401;-53
2021/12/28 02:12:39;;;;;;;157.15;20.70;;;8.10;99.90;;;;;;4156395;28;20577;-52
2021/12/28 02:14:44;;;;;;;113.00;18.58;;;8.10;99.90;;;;;;4160124;28;20124;-52
2021/12/28 02:16:46;;;;;;;99.88;18.52;;;8.10;99.90;;;;;;4162520;28;20053;-51
2021/12/28 02:18:48;;;;;;;67.30;16.85;;;8.10;99.90;;;;;;4160994;28;20038;-52
2021/12/28 02:20:52;;;;;;;35.22;14.88;;;8.20;99.90;;;;;;4146399;28;20124;-52
2021/12/28 02:22:54;;;;;;;22.48;13.82;;;8.10;99.90;;;;;;4162436;28;20505;-52
2021/12/28 02:24:56;;;;;;;49.20;15.55;;;8.10;99.90;;;;;;4160728;28;20493;-52
2021/12/28 02:26:58;;;;;;;139.93;20.13;;;8.10;99.90;;;;;;4162957;28;20042;-54
2021/12/28 02:29:00;;;;;;;148.82;22.85;;;8.20;99.90;;;;;;4160172;28;20125;-53
2021/12/28 02:31:03;;;;;;;149.00;21.75;;;8.10;99.90;;;;;;4162248;28;20120;-53
2021/12/28 02:33:05;;;;;;;;;;;8.20;99.90;;;;;;4161712;28;20042;-52
2021/12/28 02:35:12;;;;;;;228.73;20.45;;;8.20;99.90;;;;;;4161898;28;19956;-52
2021/12/28 02:37:14;;;;;;;145.02;18.75;;;8.10;99.90;;;;;;4159959;28;20562;-52
2021/12/28 02:39:16;;;;;;;227.32;17.70;;;8.10;99.90;;;;;;4161044;28;20132;-50
2021/12/28 02:41:19;;;;;;;178.45;17.15;;;8.10;99.90;;;;;;4159238;28;20052;-51
2021/12/28 02:43:22;;;;;;;74.55;11.43;;;8.10;99.90;;;;;;4161945;28;20525;-52
2021/12/28 02:45:34;;;;;;;65.72;13.18;;;8.10;99.90;;;;;;4161766;28;20048;-51
2021/12/28 02:47:38;;;;;;;77.72;12.50;;;8.10;99.90;;;;;;4154275;28;20088;-53
2021/12/28 02:49:40;;;;;;;158.85;16.58;;;8.10;99.90;;;;;;4158397;28;20041;-53
2021/12/28 02:51:42;;;;;;;58.17;11.60;;;8.10;99.90;;;;;;4157653;28;20129;-52
2021/12/28 02:53:45;;;;;;;89.28;14.25;;;8.10;99.90;;;;;;4162778;28;20560;-53
2021/12/28 02:55:49;;;;;;;39.63;11.63;;;8.10;99.90;;;;;;4163281;28;20049;-53
2021/12/28 02:57:56;;;;;;;51.20;13.88;;;8.10;99.90;;;;;;4162791;28;20099;-52
2021/12/28 02:59:58;;;;;;;135.35;16.98;;;8.10;99.90;;;;;;4166386;28;20487;-52
2021/12/28 03:02:00;;;;;;;185.48;21.27;;;8.10;99.90;;;;;;4163416;28;20137;-52
2021/12/28 03:04:04;;;;;;;266.38;23.98;;;8.10;99.90;;;;;;4166242;28;20072;-52
2021/12/28 03:06:08;;;;;;;458.42;26.45;;;8.00;99.90;;;;;;4162659;28;20514;-53
2021/12/28 03:08:11;;;;;;;401.33;24.42;;;8.00;99.90;;;;;;4165565;28;20053;-52
2021/12/28 03:10:13;;;;;;;466.95;25.20;;;8.00;99.90;;;;;;4163953;28;20038;-52
2021/12/28 03:12:15;;;;;;;381.77;21.08;;;7.90;99.90;;;;;;4164775;28;20041;-53
2021/12/28 03:14:17;;;;;;;313.30;19.13;;;7.90;99.90;;;;;;4162799;28;20386;-49
2021/12/28 03:16:21;;;;;;;374.52;21.15;;;7.90;99.90;;;;;;4164072;28;20061;-52
2021/12/28 03:18:23;;;;;;;319.40;22.10;;;7.90;99.90;;;;;;4161570;28;20034;-52
2021/12/28 03:20:26;;;;;;;333.98;23.85;;;7.90;99.90;;;;;;4166569;28;20120;-53
2021/12/28 03:22:28;;;;;;;259.67;22.58;;;8.00;99.90;;;;;;4163937;28;20144;-51
2021/12/28 03:24:30;;;;;;;34.53;12.48;;;7.90;99.90;;;;;;4152357;28;20050;-51
2021/12/28 03:26:32;;;;;;;9.15;8.32;;;7.90;99.90;;;;;;4161806;28;20378;-50
2021/12/28 03:28:38;;;;;;;10.45;8.30;;;7.90;99.90;;;;;;4164163;28;20050;-52
2021/12/28 03:30:41;;;;;;;10.70;9.35;;;7.90;99.90;;;;;;4162654;28;20085;-52
2021/12/28 03:32:43;;;;;;;8.50;7.70;;;7.80;99.90;;;;;;4164773;28;20080;-52
2021/12/28 03:34:45;;;;;;;;;;;7.80;99.90;;;;;;4162912;28;20038;-53
2021/12/28 03:36:47;;;;;;;9.55;8.45;;;7.80;99.90;;;;;;4165216;28;20023;-53
2021/12/28 03:38:50;;;;;;;6.50;6.15;;;7.80;99.90;;;;;;4163141;28;20065;-50
2021/12/28 03:40:53;;;;;;;7.95;7.22;;;7.80;99.90;;;;;;4164832;28;20083;-52
2021/12/28 03:42:55;;;;;;;8.05;7.45;;;7.80;99.90;;;;;;4162385;28;20594;-52
2021/12/28 03:44:57;;;;;;;8.43;7.90;;;7.80;99.90;;;;;;4166099;28;20133;-50
2021/12/28 03:46:59;;;;;;;8.57;7.88;;;7.80;99.90;;;;;;4161586;28;20375;-52
2021/12/28 03:49:01;;;;;;;10.85;8.63;;;7.80;99.90;;;;;;4169023;28;20132;-52
2021/12/28 03:51:06;;;;;;;7.75;7.05;;;7.80;99.90;;;;;;4160230;28;20033;-53
2021/12/28 03:53:08;;;;;;;15.63;9.02;;;7.80;99.90;;;;;;4164678;28;20140;-53
2021/12/28 03:55:10;;;;;;;11.60;9.13;;;7.80;99.90;;;;;;4161248;28;20588;-53
2021/12/28 03:57:12;;;;;;;9.45;8.75;;;7.80;99.90;;;;;;4176629;28;20068;-52
2021/12/28 03:59:14;;;;;;;10.27;7.65;;;7.80;99.90;;;;;;4162206;28;20049;-50
2021/12/28 04:01:20;;;;;;;;;;;7.80;99.90;;;;;;4165199;28;20450;-51
2021/12/28 04:03:22;;;;;;;12.38;10.57;;;7.90;99.90;;;;;;4159513;28;19922;-51
2021/12/28 04:05:25;;;;;;;9.52;8.75;;;7.80;99.90;;;;;;4164522;28;20120;-51
2021/12/28 04:07:29;;;;;;;8.27;7.60;;;7.90;99.90;;;;;;4163655;28;20037;-52
2021/12/28 04:09:57;;;;;;;9.13;7.43;;;7.90;99.90;;;;;;4163329;28;20072;-52
2021/12/28 04:11:56;;;;;;;6.53;5.97;;;7.80;99.90;;;;;;4163994;28;20042;-53
2021/12/28 04:14:02;;;;;;;5.68;5.38;;;7.80;99.90;;;;;;4161286;28;20062;-51
2021/12/28 04:16:05;;;;;;;6.80;5.90;;;7.80;99.90;;;;;;4164284;28;20048;-53
2021/12/28 04:18:07;;;;;;;6.97;6.22;;;7.70;99.90;;;;;;4161446;28;20069;-52
2021/12/28 04:20:13;;;;;;;9.65;7.45;;;7.70;99.90;;;;;;4170040;28;20128;-53
2021/12/28 04:22:16;;;;;;;7.80;6.95;;;7.70;99.90;;;;;;4167532;28;20462;-52
2021/12/28 04:24:18;;;;;;;44.83;8.75;;;7.70;99.90;;;;;;4164800;28;20132;-52
2021/12/28 04:26:21;;;;;;;313.02;19.05;;;7.70;99.90;;;;;;4163503;28;20057;-53
2021/12/28 04:28:23;;;;;;;169.00;14.55;;;7.70;99.90;;;;;;4164795;28;20332;-52
2021/12/28 04:30:25;;;;;;;63.08;13.75;;;7.70;99.90;;;;;;4162194;28;20622;-52
2021/12/28 04:32:27;;;;;;;26.27;11.13;;;7.70;99.90;;;;;;4163503;28;20485;-53
2021/12/28 04:34:29;;;;;;;20.30;11.45;;;7.70;99.90;;;;;;4161977;28;20025;-53
2021/12/28 04:36:31;;;;;;;16.35;10.68;;;7.70;99.90;;;;;;4163280;28;20042;-52
2021/12/28 04:38:34;;;;;;;48.95;12.73;;;7.70;99.90;;;;;;4161407;28;20033;-53
2021/12/28 04:40:37;;;;;;;49.30;12.30;;;7.70;99.90;;;;;;4163645;28;20044;-52
2021/12/28 04:42:41;;;;;;;54.28;12.48;;;7.70;99.90;;;;;;4160314;28;20029;-53
2021/12/28 04:44:45;;;;;;;84.18;13.20;;;7.70;99.90;;;;;;4164630;28;20122;-50
2021/12/28 04:46:47;;;;;;;109.88;13.35;;;7.70;99.90;;;;;;4160820;28;20407;-52
2021/12/28 04:48:49;;;;;;;120.93;13.88;;;7.70;99.90;;;;;;4162401;28;20117;-50
2021/12/28 04:50:52;;;;;;;241.60;16.95;;;7.60;99.90;;;;;;4160509;28;20485;-51
2021/12/28 04:52:57;;;;;;;240.23;16.58;;;7.60;99.90;;;;;;4164935;28;20141;-52
2021/12/28 04:54:59;;;;;;;210.13;14.65;;;7.60;99.90;;;;;;4161895;28;20030;-52
2021/12/28 04:57:01;;;;;;;90.68;11.63;;;7.60;99.90;;;;;;4165723;28;20041;-52
2021/12/28 04:59:03;;;;;;;14.68;7.82;;;7.60;99.90;;;;;;4161934;28;20041;-52
2021/12/28 05:01:05;;;;;;;17.88;8.63;;;7.60;99.90;;;;;;4163559;28;20044;-52
2021/12/28 05:03:08;;;;;;;32.13;9.52;;;7.60;99.90;;;;;;4161459;28;20076;-53
2021/12/28 05:05:11;;;;;;;28.30;8.18;;;7.60;99.90;;;;;;4164815;28;20042;-53
2021/12/28 05:07:13;;;;;;;23.42;9.38;;;7.70;99.90;;;;;;4162663;28;20088;-53
2021/12/28 05:09:15;;;;;;;55.35;9.25;;;7.70;99.90;;;;;;4162351;28;20045;-52
2021/12/28 05:11:18;;;;;;;34.90;9.95;;;7.60;99.90;;;;;;4161051;28;20039;-52
2021/12/28 05:13:21;;;;;;;12.95;7.65;;;7.60;99.90;;;;;;4163631;28;20112;-53
2021/12/28 05:15:22;;;;;;;;;;;7.70;99.90;;;;;;4161933;28;20030;-53
2021/12/28 05:17:25;;;;;;;9.05;8.25;;;7.70;99.90;;;;;;4162928;28;20363;-51
2021/12/28 05:19:27;;;;;;;13.35;8.70;;;7.70;99.90;;;;;;4159979;28;20033;-51
2021/12/28 05:21:30;;;;;;;9.23;8.35;;;7.70;99.90;;;;;;4171440;28;20038;-50
2021/12/28 05:23:32;;;;;;;;;;;7.70;99.90;;;;;;4160831;28;20550;-53
2021/12/28 05:25:34;;;;;;;7.38;6.65;;;7.70;99.90;;;;;;4163313;28;19925;-52
2021/12/28 05:27:36;;;;;;;7.95;7.30;;;7.70;99.90;;;;;;4159859;28;20571;-53
2021/12/28 05:29:38;;;;;;;8.85;8.25;;;7.70;99.90;;;;;;4163165;28;20038;-53
2021/12/28 05:31:40;;;;;;;34.63;9.48;;;7.70;99.90;;;;;;4160647;28;20072;-53
2021/12/28 05:33:43;;;;;;;74.88;10.00;;;7.70;99.90;;;;;;4162643;28;20041;-52
2021/12/28 05:35:45;;;;;;;;;;;7.70;99.90;;;;;;4163204;28;20064;-52
2021/12/28 05:37:47;;;;;;;83.28;11.10;;;7.60;99.90;;;;;;4162560;28;20368;-51
2021/12/28 05:39:49;;;;;;;8.40;7.75;;;7.60;99.90;;;;;;4158639;28;20057;-53
2021/12/28 05:41:51;;;;;;;8.98;8.05;;;7.60;99.90;;;;;;4163014;28;20064;-53
2021/12/28 05:43:53;;;;;;;28.25;10.20;;;7.60;99.90;;;;;;4157503;28;20040;-52
2021/12/28 05:45:55;;;;;;;10.82;9.40;;;7.60;99.90;;;;;;4162750;28;20061;-52
2021/12/28 05:47:57;;;;;;;14.40;10.50;;;7.60;99.90;;;;;;4160646;28;20136;-53
2021/12/28 05:49:59;;;;;;;13.40;9.50;;;7.60;99.90;;;;;;4162687;28;20083;-52
2021/12/28 05:52:02;;;;;;;11.05;8.48;;;7.60;99.90;;;;;;4159364;28;20569;-51
2021/12/28 05:54:05;;;;;;;8.80;7.95;;;7.60;99.90;;;;;;4162237;28;20405;-55
2021/12/28 05:56:07;;;;;;;9.68;8.82;;;7.60;99.90;;;;;;4160604;28;20107;-52
2021/12/28 05:58:10;;;;;;;9.93;6.90;;;7.60;99.90;;;;;;4163182;28;20155;-52
2021/12/28 06:00:13;;;;;;;8.95;8.25;;;7.60;99.90;;;;;;4158461;28;20044;-53
2021/12/28 06:02:15;;;;;;;7.10;6.80;;;7.60;99.90;;;;;;4161370;28;20120;-51
2021/12/28 06:04:17;;;;;;;6.47;5.80;;;7.60;99.90;;;;;;4160621;28;20042;-53
2021/12/28 06:06:19;;;;;;;15.25;11.50;;;7.60;99.90;;;;;;4163045;28;20049;-53
2021/12/28 06:08:21;;;;;;;10.18;9.13;;;7.50;99.90;;;;;;4158475;28;20399;-53
2021/12/28 06:10:33;;;;;;;10.07;8.57;;;7.50;99.90;;;;;;4162811;28;20099;-52
2021/12/28 06:12:35;;;;;;;11.90;9.25;;;7.50;99.90;;;;;;4160362;28;20524;-53
2021/12/28 06:14:37;;;;;;;254.07;16.10;;;7.50;99.90;;;;;;4157352;28;20040;-52
2021/12/28 06:16:39;;;;;;;160.38;12.80;;;7.50;99.90;;;;;;4160572;28;20041;-51
2021/12/28 06:18:42;;;;;;;253.65;17.15;;;7.50;99.90;;;;;;4162181;28;20037;-53
2021/12/28 06:20:44;;;;;;;147.00;11.00;;;7.50;99.90;;;;;;4158671;28;20095;-50
2021/12/28 06:22:46;;;;;;;104.00;9.95;;;7.50;99.90;;;;;;4162656;28;20057;-53
2021/12/28 06:24:49;;;;;;;87.97;10.20;;;7.50;99.90;;;;;;4160381;28;20038;-53
2021/12/28 06:26:51;;;;;;;14.05;7.07;;;7.50;99.90;;;;;;4165655;28;20046;-53
2021/12/28 06:28:53;;;;;;;7.07;5.22;;;7.50;99.90;;;;;;4165709;28;20052;-53
2021/12/28 06:30:56;;;;;;;7.10;6.70;;;7.50;99.90;;;;;;4164395;28;20045;-50
2021/12/28 06:32:59;;;;;;;6.68;6.03;;;7.50;99.90;;;;;;4164023;28;20504;-53
2021/12/28 06:35:01;;;;;;;4.47;4.20;;;7.60;99.90;;;;;;4166055;28;20044;-52
2021/12/28 06:37:04;;;;;;;5.53;5.10;;;7.60;99.90;;;;;;4163950;28;20112;-53
2021/12/28 06:39:07;;;;;;;5.47;5.18;;;7.60;99.90;;;;;;4164474;28;20048;-53
2021/12/28 06:41:09;;;;;;;5.50;4.93;;;7.60;99.90;;;;;;4164387;28;20053;-53
2021/12/28 06:43:11;;;;;;;4.57;4.20;;;7.60;99.90;;;;;;4166748;28;20037;-53
2021/12/28 06:45:13;;;;;;;4.50;4.30;;;7.60;99.90;;;;;;4163769;28;20030;-53
2021/12/28 06:47:15;;;;;;;;;;;7.60;99.90;;;;;;4162583;28;20045;-53
2021/12/28 06:49:18;;;;;;;7.25;3.92;;;7.60;99.90;;;;;;4163805;28;19932;-53
2021/12/28 06:51:20;;;;;;;5.00;4.82;;;7.60;99.90;;;;;;4163210;28;20136;-52
2021/12/28 06:53:22;;;;;;;5.50;5.40;;;7.60;99.90;;;;;;4165105;28;20444;-52
2021/12/28 06:55:25;;;;;;;5.15;5.05;;;7.60;99.90;;;;;;4159374;28;20060;-53
2021/12/28 06:57:27;;;;;;;5.70;5.07;;;7.60;99.90;;;;;;4159081;28;20049;-53
2021/12/28 06:59:29;;;;;;;6.03;5.65;;;7.60;99.90;;;;;;4157172;28;20474;-53
2021/12/28 07:01:31;;;;;;;7.47;7.07;;;7.60;99.90;;;;;;4162665;28;20136;-52
2021/12/28 07:03:33;;;;;;;8.50;7.15;;;7.60;99.90;;;;;;4164216;28;20132;-52
2021/12/28 07:05:35;;;;;;;6.68;6.28;;;7.70;99.90;;;;;;4160317;28;20061;-51
2021/12/28 07:07:38;;;;;;;7.70;7.15;;;7.60;99.90;;;;;;4160910;28;20132;-52
2021/12/28 07:09:40;;;;;;;;;;;7.70;99.90;;;;;;4166081;28;20398;-51
2021/12/28 07:11:42;;;;;;;6.43;6.03;;;7.70;99.90;;;;;;4162064;28;19960;-52
2021/12/28 07:13:45;;;;;;;6.95;6.60;;;7.70;99.90;;;;;;4165814;28;20061;-52
2021/12/28 07:15:48;;;;;;;8.15;7.78;;;7.70;99.90;;;;;;4163073;28;20042;-53
2021/12/28 07:17:50;;;;;;;8.57;8.02;;;7.80;99.90;;;;;;4163996;28;20544;-52
2021/12/28 07:19:53;;;;;;;;;;;7.80;99.90;;;;;;4163482;28;20061;-52
2021/12/28 07:21:55;;;;;;;7.65;7.25;;;7.80;99.90;;;;;;4165635;28;20012;-52
2021/12/28 07:23:57;;;;;;;6.93;6.47;;;7.80;99.90;;;;;;4163992;28;20107;-53
2021/12/28 07:25:59;;;;;;;6.55;6.15;;;7.80;99.90;;;;;;4158661;28;20049;-53
2021/12/28 07:28:01;;;;;;;9.07;6.38;;;7.80;99.90;;;;;;4154512;28;20132;-52
2021/12/28 07:30:07;;;;;;;16.30;8.90;;;7.80;99.90;;;;;;4164528;28;20065;-53
2021/12/28 07:32:09;;;;;;;6.82;6.25;;;7.80;99.90;;;;;;4162420;28;20136;-53
2021/12/28 07:34:12;;;;;;;7.97;7.38;;;7.80;99.90;;;;;;4165399;28;20424;-51
2021/12/28 07:36:15;;;;;;;;;;;7.90;99.90;;;;;;4162648;28;20038;-53
2021/12/28 07:38:17;;;;;;;5.05;4.95;;;7.90;99.90;;;;;;4164657;28;20358;-51
2021/12/28 07:40:20;;;;;;;5.13;4.93;;;7.90;99.90;;;;;;4163052;28;20058;-52
2021/12/28 07:42:22;;;;;;;6.05;5.95;;;7.90;99.90;;;;;;4163728;28;20480;-53
2021/12/28 07:44:25;;;;;;;4.68;4.57;;;7.90;99.90;;;;;;4161770;28;20068;-52
2021/12/28 07:46:27;;;;;;;7.65;7.25;;;7.90;99.90;;;;;;4164589;28;20069;-52
2021/12/28 07:48:29;;;;;;;5.93;5.70;;;8.00;99.90;;;;;;4162867;28;20049;-52
2021/12/28 07:50:31;;;;;;;6.07;5.97;;;8.00;99.90;;;;;;4165512;28;20041;-51
2021/12/28 07:52:34;;;;;;;7.03;6.93;;;8.00;99.90;;;;;;4161858;28;20037;-52
2021/12/28 07:54:36;;;;;;;;;;;8.00;99.90;;;;;;4164612;28;20042;-53
2021/12/28 07:56:38;;;;;;;5.20;5.10;;;8.00;99.90;;;;;;4161848;28;19921;-53
2021/12/28 07:58:40;;;;;;;5.95;5.65;;;8.00;99.90;;;;;;4164829;28;20041;-52
2021/12/28 08:00:42;;;;;;;4.93;4.82;;;8.00;99.90;;;;;;4162434;28;20052;-53
2021/12/28 08:02:45;;;;;;;5.95;5.40;;;8.00;99.90;;;;;;4164887;28;20034;-52
2021/12/28 08:04:48;;;;;;;4.72;4.63;;;8.10;99.90;;;;;;4162943;28;20118;-52
2021/12/28 08:06:50;;;;;;;6.00;4.88;;;8.10;99.90;;;;;;4164114;28;20156;-53
2021/12/28 08:08:52;;;;;;;6.05;5.57;;;8.10;99.90;;;;;;4161426;28;20056;-53
2021/12/28 08:10:54;;;;;;;6.43;5.95;;;8.10;99.90;;;;;;4165890;28;20128;-52
2021/12/28 08:12:56;;;;;;;6.32;5.93;;;8.10;99.90;;;;;;4161175;28;20068;-50
2021/12/28 08:14:59;;;;;;;6.20;5.85;;;8.10;99.90;;;;;;4165594;28;20437;-53
2021/12/28 08:17:01;;;;;;;;;;;8.20;99.90;;;;;;4162018;28;20128;-50
2021/12/28 08:19:04;;;;;;;7.78;7.28;;;8.20;99.90;;;;;;4163324;28;20385;-52
2021/12/28 08:21:26;;;;;;;6.78;5.47;;;8.20;99.90;;;;;;4162159;28;20123;-52
2021/12/28 08:23:28;;;;;;;7.75;6.05;;;8.20;99.90;;;;;;4150808;28;20042;-51
2021/12/28 08:25:30;;;;;;;5.65;5.18;;;8.20;99.90;;;;;;4161375;28;20827;-50
2021/12/28 08:27:33;;;;;;;7.53;5.05;;;8.20;99.90;;;;;;4149252;28;20129;-52
2021/12/28 08:29:35;;;;;;;5.90;5.53;;;8.20;99.90;;;;;;4160918;28;20132;-51
2021/12/28 08:31:42;;;;;;;6.32;6.15;;;8.20;99.90;;;;;;4163974;28;20055;-51
2021/12/28 08:33:44;;;;;;;9.07;8.80;;;8.30;99.90;;;;;;4162097;28;20072;-51
2021/12/28 08:35:46;;;;;;;11.60;10.90;;;8.40;99.90;;;;;;4164298;28;20037;-53
2021/12/28 08:37:48;;;;;;;11.02;10.20;;;8.40;99.90;;;;;;4160922;28;20070;-52
2021/12/28 08:39:50;;;;;;;9.35;8.65;;;8.40;99.90;;;;;;4149975;28;20617;-52
2021/12/28 08:41:52;;;;;;;10.85;10.07;;;8.40;99.90;;;;;;4161796;28;20041;-51
2021/12/28 08:43:54;;;;;;;12.40;11.07;;;8.40;99.90;;;;;;4164261;28;20562;-53
2021/12/28 08:45:56;;;;;;;13.25;12.23;;;8.50;99.90;;;;;;4161633;28;20130;-52
2021/12/28 08:47:59;;;;;;;14.82;13.10;;;8.50;99.90;;;;;;4163586;28;20115;-53
2021/12/28 08:50:01;;;;;;;14.55;11.23;;;8.50;99.90;;;;;;4161673;28;20049;-53
2021/12/28 08:52:03;;;;;;;12.48;11.40;;;8.50;99.90;;;;;;4163377;28;20656;-53
2021/12/28 08:54:05;;;;;;;7.88;7.57;;;8.60;99.90;;;;;;4159709;28;20037;-51
2021/12/28 08:56:08;;;;;;;8.63;8.32;;;8.50;99.90;;;;;;4151969;28;20065;-52
2021/12/28 08:58:10;;;;;;;8.35;7.90;;;8.60;99.90;;;;;;4161083;28;20113;-53
2021/12/28 09:00:16;;;;;;;10.85;10.20;;;8.70;99.90;;;;;;4148199;28;20060;-53
2021/12/28 09:02:18;;;;;;;9.93;8.90;;;8.70;99.90;;;;;;4161688;28;20064;-53
2021/12/28 09:04:20;;;;;;;15.15;13.65;;;8.80;99.90;;;;;;4161877;28;20053;-52
2021/12/28 09:06:23;;;;;;;19.70;16.45;;;8.90;99.90;;;;;;4160486;28;20054;-52
2021/12/28 09:08:25;;;;;;;22.02;19.58;;;8.90;99.90;;;;;;4161846;28;20136;-52
2021/12/28 09:10:27;;;;;;;20.02;17.98;;;8.90;99.90;;;;;;4162335;28;20041;-53
2021/12/28 09:12:29;;;;;;;22.75;20.45;;;8.90;99.90;;;;;;4162524;28;20037;-52
2021/12/28 09:14:32;;;;;;;20.40;18.50;;;8.80;99.90;;;;;;4163108;28;20099;-53
2021/12/28 09:16:34;;;;;;;10.57;9.65;;;8.80;99.90;;;;;;4161799;28;23713;-51
2021/12/28 09:18:36;;;;;;;7.55;7.35;;;8.80;99.90;;;;;;4164690;28;20037;-52
2021/12/28 09:20:38;;;;;;;7.35;7.15;;;8.70;99.90;;;;;;4163018;28;20042;-53
2021/12/28 09:22:41;;;;;;;10.15;9.75;;;8.60;99.90;;;;;;4162771;28;20041;-53
2021/12/28 09:24:43;;;;;;;15.60;12.40;;;8.70;99.90;;;;;;4161922;28;20037;-51
2021/12/28 09:26:51;;;;;;;13.70;12.70;;;8.70;99.90;;;;;;4162196;28;20063;-53
2021/12/28 09:28:53;;;;;;;;;;;8.70;99.90;;;;;;4161201;28;20045;-52
2021/12/28 09:30:56;;;;;;;8.68;8.38;;;8.70;99.90;;;;;;4162775;28;20016;-53
2021/12/28 09:32:58;;;;;;;7.32;6.90;;;8.70;99.90;;;;;;4160830;28;20140;-53
2021/12/28 09:35:00;;;;;;;7.13;6.82;;;8.60;99.90;;;;;;4163216;28;20124;-52
2021/12/28 09:37:02;;;;;;;7.13;6.93;;;8.70;99.90;;;;;;4160416;28;20133;-52
2021/12/28 09:39:04;;;;;;;;;;;8.70;99.90;;;;;;4162494;28;20041;-53
2021/12/28 09:41:06;;;;;;;8.45;7.95;;;8.70;99.90;;;;;;4160454;28;20394;-53
2021/12/28 09:43:08;;;;;;;8.48;7.97;;;8.70;99.90;;;;;;4162307;28;20042;-53
2021/12/28 09:45:12;;;;;;;7.45;7.25;;;8.70;99.90;;;;;;4160670;28;20037;-49
2021/12/28 09:47:16;;;;;;;6.63;6.53;;;8.70;99.90;;;;;;4163108;28;20052;-52
2021/12/28 09:49:18;;;;;;;7.53;7.25;;;8.70;99.90;;;;;;4160380;28;20037;-53
2021/12/28 09:51:20;;;;;;;;;;;8.80;99.90;;;;;;4160354;28;20461;-53
2021/12/28 09:53:22;;;;;;;12.15;10.93;;;8.70;99.90;;;;;;4160256;28;19967;-52
2021/12/28 09:55:25;;;;;;;12.63;11.95;;;8.80;99.90;;;;;;4163712;28;20065;-53
2021/12/28 09:57:28;;;;;;;10.00;9.60;;;8.80;99.90;;;;;;4161226;28;20056;-52
2021/12/28 09:59:31;;;;;;;8.95;8.65;;;8.90;99.90;;;;;;4163388;28;20099;-52
2021/12/28 10:01:33;;;;;;;7.63;7.45;;;8.90;99.90;;;;;;4159242;28;20040;-53
2021/12/28 10:03:36;;;;;;;10.70;10.20;;;8.80;99.90;;;;;;4162499;28;20441;-54
2021/12/28 10:05:39;;;;;;;9.40;8.82;;;8.80;99.90;;;;;;4160785;28;20517;-54
2021/12/28 10:07:56;;;;;;;10.73;10.15;;;8.90;99.90;;;;;;4159105;28;20464;-54
2021/12/28 10:09:59;;;;;;;8.82;8.43;;;9.00;99.90;;;;;;4160676;28;20111;-54
2021/12/28 10:12:01;;;;;;;8.07;7.78;;;9.00;99.90;;;;;;4161867;28;20052;-54
2021/12/28 10:14:18;;;;;;;8.75;8.32;;;9.00;99.90;;;;;;4161034;28;20045;-54
2021/12/28 10:16:45;;;;;;;8.20;7.50;;;9.00;99.90;;;;;;4148743;28;20038;-54
2021/12/28 10:18:47;;;;;;;6.03;5.93;;;9.10;99.90;;;;;;4158683;28;20065;-53
2021/12/28 10:20:59;;;;;;;7.20;7.03;;;9.00;99.90;;;;;;4162862;28;20474;-53
2021/12/28 10:23:03;;;;;;;6.40;6.30;;;9.00;99.90;;;;;;4161416;28;20037;-53
2021/12/28 10:25:09;;;;;;;8.48;8.00;;;9.10;99.90;;;;;;4161705;28;20472;-54
2021/12/28 10:27:14;;;;;;;6.07;5.68;;;9.20;99.90;;;;;;4162729;28;20072;-53
2021/12/28 10:29:30;;;;;;;6.18;6.07;;;9.20;99.90;;;;;;4161240;28;20046;-54
2021/12/28 10:31:32;;;;;;;6.75;6.53;;;9.10;99.90;;;;;;4162288;28;20045;-53
2021/12/28 10:33:36;;;;;;;9.43;8.93;;;9.10;99.90;;;;;;4160133;28;20104;-54
2021/12/28 10:35:48;;;;;;;11.55;10.50;;;9.20;99.90;;;;;;4162589;28;20441;-54
2021/12/28 10:37:54;;;;;;;5.67;5.57;;;9.30;99.90;;;;;;4159248;28;20482;-53
2021/12/28 10:39:58;;;;;;;6.80;6.50;;;9.40;99.90;;;;;;4162754;28;20037;-53
2021/12/28 10:42:00;;;;;;;5.78;5.68;;;9.30;99.90;;;;;;4160618;28;20088;-54
2021/12/28 10:44:02;;;;;;;5.93;5.82;;;9.40;99.90;;;;;;4160397;28;20046;-54
2021/12/28 10:46:31;;;;;;;6.47;6.30;;;9.40;99.90;;;;;;4160705;28;20132;-53